Sunday, June 26, 2016
17:11 UTC
  |  Log In   |  Register Free
Airport Search:

Fairfield County Airport
(KFDW)

Fairfield County Airport Diagram
No Airport Diagram Available

FAA data valid effective May 26 2016 - Jul 21 2016 (unless otherwise noted).

 
 
 
 
 
 
 
 
 
 
 
 
 
 
Current Aviation Weather for KFDW

Weather Summary


The most recent METAR observation for FDW was updated at: 12:55 UTC
METAR for KFDW is not available. Closest METAR is for KCUB
KFDW  (most recent observation was updatred at 26:16 UTC)
261655Z AUTO 06005KT 10SM SCT036 30/19 A3018 RMK AO1

KCUB  (21.5 nm NW)   (most recent observation was updated at 26:16 UTC)
261653Z AUTO 01004KT 10SM BKN040 31/19 A3017 RMK AO2 SLP213 T03060194

KCAE  (22.6 nm NE)   (most recent observation was updated at 26:16 UTC)
261656Z 09007KT 10SM SCT038 SCT200 32/19 A3016 RMK AO2 SLP207 T03220194 $

TAF for KFDW is not available.
KCUB  (21.5 nm NW)   (most recent observation was updatred at 26:15 UTC)
AMD 261503Z 2615/2712 06006KT P6SM SCT030 FM270100 00000KT P6SM FEW250


KCAE  (22.6 nm NE)   (most recent observation was updatred at 26:15 UTC)
AMD 261503Z 2615/2712 06007KT P6SM SCT030 FM270100 VRB03KT P6SM FEW250


KMMT  (28.3 nm NW)   (most recent observation was updatred at 26:15 UTC)
261500Z 2615/2721 06009KT 9999 FEW060 QNH3006INS TEMPO 2709/2712 4800 BR BKN005 BECMG 2714/2715 18007KT 9999 SCT050 QNH2999INS TX30/2620Z TN17/2709Z
GlobalAir.com is loading additional information.
 Current Weather at FDW
84.0 F° (29.0 C°)

Northeast winds at 8.1 mph
Pressure:
30.21 in
Humidity:
58%
Wind:
Northeast at 8.1 mph
Dew Point:
68.0 F° (20.0 C°)
Visibility:
10.00 mi
FDW NOAA Radar




Find All Airport Services Find A Hotel Find A Rental Car Find A Golf Course Find A Restaurant $100 Hamburger



Airport Weather Forecast for KFDW

Translated METAR for KFDW (1655 UTC)
METAR:
KFDW 261655Z AUTO 06005KT 10SM SCT036 30/19 A3018 RMK AO1
Conditions at:
KFDW (Fairfield County, SC) observed 1655 UTC 26 June 2016
Temperature:
30°C (86°F)
Dewpoint:
19°C (66.2°F) [RH = 51.8]
Pressure:
30.18 inches Hg (1022 mb)
Winds:
from the ENE (060 degrees) at 5.8 mph (5 knots: 2.6 m/s)
Visibility:
10 mile(s)
Ceiling:
at least 12,000 feet AGL
Clouds:
Scattered Clouds at 3,600 feet AGL
Remarks:
site is un-manned
site is automated and does NOT have a precipitation sensor

Translated TAF for KCUB (Jim Hamilton L B Owens, SC) (1503 UTC)
TAF text:
KCUB 261503Z 2615/2712 06006KT P6SM SCT030
Forecast period:
Sunday Jun 26 2016 15:00 UTC - Monday Jun 27 2016 12:00 UTC
Forecast type:
FROM: standard forecast or significant change
Winds:
from the ENE (060 degrees) at 6.9 mph (6 knots: 3.1 m/s)
Visibility:
6 or more mile(s) (9.7+ km)
Ceiling:
at least 12,000 feet AGL
Clouds:
Scattered Clouds at 3,000 feet AGL
Weather:
no significant weather observed at this time
TAF text:
FM270100 00000KT P6SM FEW250
Forecast period:
Monday Jun 27 2016 01:00 UTC - Monday Jun 27 2016 12:00 UTC
Forecast type:
FROM: standard forecast or significant change
Winds:
from the N (000 degrees) at 0 mph (0 knots: 0 m/s)
Visibility:
6 or more mile(s) (9.7+ km)
Ceiling:
at least 12,000 feet AGL
Clouds:
Few Clouds at 25,000 feet AGL
Weather:
no significant weather observed at this time
FBO's on the Field
FBO Company Facility Photos Services Transportation Aviation Fuel Prices: Prices include tax
Catering Weather Repair Courtesy Rental Type 100LL JetA JetA+ MOGAS 8087
 
S & S Aviation Services

This FBO has not yet been rated
FS:Shell
Last Updated: Jun-24
Login to update fuel prices
SS:
Contact S & S Aviation ServicesMore FBO Information
 
Add another FBO Facility Photos Catering Weather Repair Courtesy Rental Type 100LL JetA JetA+ MOGAS 8087
Services Transportation Aviation Fuel Prices: Prices include tax


model-print
model-print
model-print
model-print